createdAt,value
2023-02-16T00:04:31.475Z,9.95
2023-02-16T00:09:33.731Z,8.43
2023-02-16T00:14:38.031Z,8.75
2023-02-16T00:19:45.134Z,7.65
2023-02-16T00:24:47.407Z,13.13
2023-02-16T00:29:49.652Z,12.13
2023-02-16T00:34:51.830Z,14.23
2023-02-16T00:39:53.931Z,13.45
2023-02-16T00:44:57.633Z,11.77
2023-02-16T00:49:59.999Z,18.77
2023-02-16T00:55:07.806Z,18.48
2023-02-16T01:00:24.359Z,13.02
2023-02-16T01:05:27.896Z,14.60
2023-02-16T01:10:49.090Z,17.38
2023-02-16T01:15:51.321Z,15.48
2023-02-16T01:20:53.552Z,15.70
2023-02-16T01:25:57.067Z,15.00
2023-02-16T01:30:59.445Z,10.38
2023-02-16T01:36:01.682Z,7.22
2023-02-16T01:41:22.822Z,12.07
2023-02-16T01:46:36.664Z,6.30
2023-02-16T01:51:46.977Z,6.60
2023-02-16T01:57:05.211Z,6.00
2023-02-16T02:02:34.962Z,8.15
2023-02-16T02:07:48.101Z,7.85
2023-02-16T02:12:54.148Z,5.88
2023-02-16T02:17:58.010Z,4.78
2023-02-16T02:23:33.269Z,11.65
2023-02-16T02:29:05.109Z,3.55
2023-02-16T02:34:20.643Z,12.43
2023-02-16T02:39:34.483Z,6.53
2023-02-16T02:44:50.207Z,2.40
2023-02-16T02:49:54.330Z,12.88
2023-02-16T02:55:15.308Z,4.00
2023-02-16T03:00:44.479Z,3.58
2023-02-16T03:05:53.706Z,5.18
2023-02-16T03:11:28.790Z,9.15
2023-02-16T03:16:36.505Z,10.10
2023-02-16T03:22:00.156Z,5.93
2023-02-16T03:27:21.703Z,1.02
2023-02-16T03:32:24.310Z,3.88
2023-02-16T03:37:26.678Z,3.83
2023-02-16T03:42:29.294Z,6.88
2023-02-16T03:47:31.558Z,7.05
2023-02-16T03:52:33.863Z,4.72
2023-02-16T03:57:36.332Z,5.70
2023-02-16T04:02:38.619Z,2.67
2023-02-16T04:07:40.811Z,6.22
2023-02-16T04:12:43.319Z,6.32
2023-02-16T04:17:46.198Z,3.70
2023-02-16T04:22:49.001Z,7.45
2023-02-16T04:27:51.914Z,3.03
2023-02-16T04:32:54.996Z,1.70
2023-02-16T04:37:57.321Z,5.07
2023-02-16T04:42:59.486Z,3.05
2023-02-16T04:48:02.133Z,2.25
2023-02-16T04:53:04.848Z,2.42
2023-02-16T04:58:07.144Z,3.55
2023-02-16T05:03:09.883Z,3.80
2023-02-16T05:08:12.149Z,5.68
2023-02-16T05:13:33.078Z,5.00
2023-02-16T05:18:35.280Z,7.18
2023-02-16T05:23:39.655Z,7.82
2023-02-16T05:28:41.811Z,6.60
2023-02-16T05:33:44.094Z,5.57
2023-02-16T05:38:46.860Z,3.30
2023-02-16T05:43:53.499Z,10.40
2023-02-16T05:48:56.190Z,9.77
2023-02-16T05:53:58.957Z,1.65
2023-02-16T05:59:01.342Z,3.53
2023-02-16T06:04:03.678Z,7.53
2023-02-16T06:09:08.175Z,11.23
2023-02-16T06:14:13.203Z,9.27
2023-02-16T06:19:18.294Z,5.53
2023-02-16T06:24:20.599Z,12.48
2023-02-16T06:29:23.065Z,10.85
2023-02-16T06:34:26.870Z,5.45
2023-02-16T06:39:29.190Z,7.88
2023-02-16T06:44:31.375Z,8.73
2023-02-16T06:49:33.997Z,5.15
2023-02-16T06:54:36.312Z,3.25
2023-02-16T06:59:38.515Z,7.40
2023-02-16T07:04:40.750Z,5.38
2023-02-16T07:09:43.016Z,11.85
2023-02-16T07:14:45.483Z,5.40
2023-02-16T07:19:47.791Z,4.43
2023-02-16T07:24:50.201Z,7.28
2023-02-16T07:29:53.025Z,3.88
2023-02-16T07:34:55.366Z,5.07
2023-02-16T07:39:57.570Z,3.10
2023-02-16T07:45:00.223Z,5.80
2023-02-16T07:50:02.479Z,2.70
2023-02-16T07:55:05.365Z,7.13
2023-02-16T08:00:08.643Z,3.03
2023-02-16T08:05:16.865Z,1.55
2023-02-16T08:10:19.259Z,4.57
2023-02-16T08:15:22.021Z,3.03
2023-02-16T08:20:45.147Z,1.45
2023-02-16T08:25:51.756Z,1.77
2023-02-16T08:30:54.152Z,4.22
2023-02-16T08:35:59.110Z,5.25
2023-02-16T08:41:02.141Z,0.75
2023-02-16T08:46:08.250Z,0.88
2023-02-16T08:51:17.789Z,9.30
2023-02-16T09:01:23.882Z,1.27
2023-02-16T09:06:26.197Z,0.52
2023-02-16T09:11:28.681Z,3.58
2023-02-16T09:16:34.870Z,2.33
2023-02-16T09:21:37.392Z,1.35
2023-02-16T09:26:43.037Z,2.17
2023-02-16T09:31:46.883Z,1.70
2023-02-16T09:36:49.854Z,1.80
2023-02-16T09:41:57.930Z,1.80
2023-02-16T09:47:05.023Z,1.90
2023-02-16T09:52:42.439Z,0.68
2023-02-16T09:57:54.782Z,0.20
2023-02-16T10:03:06.282Z,1.27
2023-02-16T10:08:14.541Z,0.57
2023-02-16T10:13:36.040Z,0.77
2023-02-16T10:18:43.966Z,1.65
2023-02-16T10:23:58.479Z,2.70
2023-02-16T10:29:08.233Z,0.70
2023-02-16T10:34:31.517Z,1.92
2023-02-16T10:40:02.639Z,6.63
2023-02-16T10:45:15.707Z,2.70
2023-02-16T10:50:39.132Z,1.00
2023-02-16T10:55:41.386Z,0.20
2023-02-16T11:01:11.657Z,1.60
2023-02-16T11:06:16.645Z,0.30
2023-02-16T11:11:22.881Z,1.17
2023-02-16T11:16:26.695Z,2.10
2023-02-16T11:21:43.924Z,2.17
2023-02-16T11:27:03.932Z,4.63
2023-02-16T11:32:08.777Z,0.15
2023-02-16T11:37:29.203Z,1.17
2023-02-16T11:47:56.928Z,0.52
2023-02-16T11:53:16.274Z,0.10
2023-02-16T12:03:47.985Z,0.20
2023-02-16T12:09:30.196Z,0.65
2023-02-16T12:14:38.346Z,0.35
2023-02-16T12:19:53.874Z,0.20
2023-02-16T12:25:09.909Z,0.10
2023-02-16T12:30:12.068Z,0.20
2023-02-16T12:35:23.789Z,0.05
2023-02-16T12:40:50.205Z,0.47
2023-02-16T12:45:54.396Z,1.77
2023-02-16T12:50:58.702Z,1.52
2023-02-16T12:56:05.053Z,0.98
2023-02-16T13:01:16.110Z,0.70
2023-02-16T13:06:43.241Z,0.43
2023-02-16T13:12:03.726Z,4.10
2023-02-16T13:17:25.122Z,0.82
2023-02-16T13:22:55.710Z,2.10
2023-02-16T13:28:37.996Z,0.70
2023-02-16T13:33:48.956Z,0.60
2023-02-16T13:39:21.807Z,2.55
2023-02-16T13:44:48.706Z,1.10
2023-02-16T13:50:04.476Z,0.80
2023-02-16T13:55:22.205Z,0.80
2023-02-16T14:00:29.121Z,1.65
2023-02-16T14:05:38.974Z,2.15
2023-02-16T14:10:58.100Z,1.42
2023-02-16T14:16:11.661Z,2.15
2023-02-16T14:21:37.682Z,0.70
2023-02-16T14:27:02.216Z,1.83
2023-02-16T14:32:21.942Z,1.40
2023-02-16T14:37:30.455Z,3.03
2023-02-16T14:42:35.671Z,2.00
2023-02-16T14:47:46.817Z,0.80
2023-02-16T14:52:58.025Z,1.08
2023-02-16T14:58:22.284Z,2.17
2023-02-16T15:03:26.332Z,3.42
2023-02-16T15:08:35.362Z,3.10
2023-02-16T15:13:37.660Z,5.55
2023-02-16T15:18:48.176Z,2.00
2023-02-16T15:29:29.332Z,2.90
2023-02-16T15:34:41.195Z,1.58
2023-02-16T15:39:57.993Z,1.20
2023-02-16T15:45:37.739Z,1.17
2023-02-16T15:50:40.431Z,2.22
2023-02-16T15:55:49.306Z,1.73
2023-02-16T16:00:54.593Z,2.92
2023-02-16T16:06:02.179Z,2.85
2023-02-16T16:11:04.916Z,3.20
2023-02-16T16:16:10.112Z,1.58
2023-02-16T16:21:25.989Z,1.90
2023-02-16T16:26:31.894Z,6.03
2023-02-16T16:31:39.740Z,3.15
2023-02-16T16:36:47.488Z,2.08
2023-02-16T16:41:55.367Z,2.17
2023-02-16T16:46:57.662Z,3.05
2023-02-16T16:51:59.875Z,4.03
2023-02-16T16:57:15.541Z,2.92
2023-02-16T17:02:18.140Z,4.00
2023-02-16T17:07:21.125Z,6.10
2023-02-16T17:12:25.832Z,6.53
2023-02-16T17:17:28.270Z,4.95
2023-02-16T17:22:30.500Z,8.13
2023-02-16T17:27:32.753Z,6.90
2023-02-16T17:32:35.061Z,6.30
2023-02-16T17:37:37.266Z,4.57
2023-02-16T17:42:39.494Z,5.07
2023-02-16T17:47:46.212Z,8.02
2023-02-16T17:52:48.450Z,8.00
2023-02-16T17:57:51.012Z,5.60
2023-02-16T18:02:53.146Z,6.68
2023-02-16T18:07:56.607Z,6.40
2023-02-16T18:12:58.902Z,7.30
2023-02-16T18:18:01.474Z,12.50
2023-02-16T18:23:05.003Z,14.18
2023-02-16T18:28:07.351Z,15.32
2023-02-16T18:33:09.616Z,14.98
2023-02-16T18:38:11.852Z,16.00
2023-02-16T18:43:14.117Z,14.95
2023-02-16T18:48:16.480Z,17.00
2023-02-16T18:53:18.738Z,14.65
2023-02-16T18:58:20.895Z,18.67
2023-02-16T19:03:23.051Z,25.77
2023-02-16T19:08:25.164Z,26.08
2023-02-16T19:13:27.313Z,19.98
2023-02-16T19:18:29.847Z,20.30
2023-02-16T19:23:31.974Z,23.98
2023-02-16T19:28:35.213Z,22.67
2023-02-16T19:33:37.445Z,18.40
2023-02-16T19:38:40.955Z,20.88
2023-02-16T19:43:43.497Z,31.02
2023-02-16T19:48:48.484Z,20.50
2023-02-16T19:53:50.671Z,17.48
2023-02-16T19:58:53.892Z,26.65
2023-02-16T20:03:57.602Z,26.88
2023-02-16T20:09:00.800Z,27.02
2023-02-16T20:14:02.959Z,25.75
2023-02-16T20:19:05.270Z,25.98
2023-02-16T20:24:07.611Z,27.67
2023-02-16T20:29:12.134Z,40.67
2023-02-16T20:34:14.913Z,28.27
2023-02-16T20:39:17.511Z,39.55
2023-02-16T20:44:20.343Z,37.33
2023-02-16T20:49:22.758Z,37.25
2023-02-16T20:54:24.983Z,37.08
2023-02-16T20:59:27.836Z,44.90
2023-02-16T21:04:30.349Z,48.53
2023-02-16T21:09:32.510Z,55.75
2023-02-16T21:14:34.689Z,46.50
2023-02-16T21:19:38.627Z,57.53
2023-02-16T21:24:42.280Z,57.95
2023-02-16T21:29:44.919Z,77.75
2023-02-16T21:34:49.774Z,121.18
2023-02-16T21:40:10.430Z,208.88
2023-02-16T21:45:12.628Z,351.27
2023-02-16T21:50:17.162Z,276.27
2023-02-16T21:55:37.769Z,257.77
2023-02-16T22:00:42.532Z,231.77
2023-02-16T22:05:44.832Z,183.18
2023-02-16T22:10:47.058Z,165.13
2023-02-16T22:15:49.366Z,122.57
2023-02-16T22:20:51.570Z,115.82
2023-02-16T22:25:53.748Z,127.13
2023-02-16T22:30:55.958Z,189.35
2023-02-16T22:35:58.175Z,230.40
2023-02-16T22:41:04.886Z,268.30
2023-02-16T22:46:09.537Z,253.88
2023-02-16T22:51:14.320Z,293.85
2023-02-16T22:56:19.283Z,297.13
2023-02-16T23:01:21.929Z,257.77
2023-02-16T23:06:27.314Z,244.15
2023-02-16T23:11:30.463Z,210.80
2023-02-16T23:16:32.868Z,234.27
2023-02-16T23:21:35.142Z,263.27
2023-02-16T23:26:37.485Z,274.52
2023-02-16T23:31:41.696Z,305.90
2023-02-16T23:36:44.214Z,395.50
2023-02-16T23:41:47.604Z,305.85
2023-02-16T23:46:54.400Z,304.50
2023-02-16T23:52:01.964Z,338.02
2023-02-16T23:57:11.974Z,262.10
